Flight Track Log - Related Links

Times and Time Zones

All times are in EDT time to prevent confusion due to time zone crossing. See the CAL211 flight status page for this flight to view local times or setup timezone preferences in your user account.

Time Position Orientation Groundspeed Altitude Reporting Facility
EDT Latitude Longitude Course Direction KTS MPH feet Rate Location/Type
Mon 08:06:00 PM 25.1424 121.3956 297° West  Level Estimated
Mon 08:07:00 PM 25.1606 121.3566 297° West  Level Estimated
Mon 08:08:00 PM 25.1788 121.3175 297° West  Level Estimated
Mon 08:09:00 PM 25.1970 121.2784 297° West  Level Estimated
Mon 08:10:00 PM 25.2151 121.2393 297° West  Level Estimated
Mon 08:11:00 PM 25.2333 121.2002 297° West  Level Estimated
Mon 08:12:00 PM 25.2515 121.1611 297° West  Level Estimated
Mon 08:13:00 PM 25.2696 121.1220 297° West  Level Estimated
Mon 08:14:00 PM 25.2878 121.0829 297° West  Level Estimated
Mon 08:15:00 PM 25.3059 121.0437 297° West  Level Estimated
Mon 08:16:00 PM 25.3240 121.0046 297° West  Level Estimated
Mon 08:17:00 PM 25.3421 120.9654 297° West  Level Estimated
Mon 08:18:00 PM 25.3602 120.9263 297° West  Level Estimated
Mon 08:19:00 PM 25.3783 120.8871 297° West  Level Estimated
Mon 08:20:00 PM 25.3963 120.8479 297° West  Level Estimated
Mon 08:21:00 PM 25.4144 120.8087 297° West  Level Estimated
Mon 08:22:00 PM 25.4324 120.7694 297° West  Level Estimated
Mon 08:23:00 PM 25.4505 120.7302 297° West  Level Estimated
Mon 08:24:00 PM 25.4685 120.6910 297° West  Level Estimated
Mon 08:25:00 PM 25.4865 120.6517 297° West  Level Estimated
Mon 08:26:00 PM 25.5046 120.6124 297° West  Level Estimated
Mon 08:27:00 PM 25.5226 120.5732 297° West  Level Estimated
Mon 08:28:00 PM 25.5406 120.5339 297° West  Level Estimated
Mon 08:29:00 PM 25.5585 120.4946 297° West  Level Estimated
Mon 08:30:00 PM 25.5765 120.4552 297° West  Level Estimated
Mon 08:31:00 PM 25.5945 120.4159 297° West  Level Estimated
Mon 08:32:00 PM 25.6124 120.3766 297° West  Level Estimated
Mon 08:33:00 PM 25.6303 120.3372 297° West  Level Estimated
Mon 08:34:00 PM 25.6483 120.2979 297° West  Level Estimated
Mon 08:35:00 PM 25.6662 120.2585 297° West  Level Estimated
Mon 08:36:00 PM 25.6841 120.2191 297° West  Level Estimated
Mon 08:37:00 PM 25.7020 120.1797 297° West  Level Estimated
Mon 08:38:00 PM 25.7199 120.1403 297° West  Level Estimated
Mon 08:39:00 PM 25.7377 120.1009 297° West  Level Estimated
Mon 08:40:00 PM 25.7556 120.0614 297° West  Level Estimated
Mon 08:41:00 PM 25.7735 120.0220 297° West  Level Estimated
Mon 08:42:00 PM 25.7913 119.9825 297° West  Level Estimated
Mon 08:43:00 PM 25.8091 119.9430 297° West  Level Estimated
Mon 08:44:00 PM 25.8270 119.9036 297° West  Level Estimated
Mon 08:45:00 PM 25.8448 119.8641 297° West  Level Estimated
Mon 08:46:00 PM 25.8626 119.8246 297° West  Level Estimated
Mon 08:47:00 PM 25.8804 119.7850 297° West  Level Estimated
Mon 08:48:00 PM 25.8981 119.7455 297° West  Level Estimated
Mon 08:49:00 PM 25.9159 119.7060 297° West  Level Estimated
Mon 08:50:00 PM 25.9336 119.6664 297° West  Level Estimated
Mon 08:51:00 PM 25.9351 119.6633 297° West  Level Estimated
Mon 08:52:00 PM 25.9351 119.6633 North  Level Estimated
Mon 08:53:00 PM 25.9351 119.6633 North  Level Estimated
Mon 08:54:00 PM 25.9351 119.6633 North  Level Estimated
Mon 08:55:00 PM 25.9351 119.6633 North  Level Estimated
Mon 08:56:00 PM 25.9351 119.6633 North  Level Estimated
Mon 08:57:00 PM 25.9351 119.6633 North  Level Estimated
Mon 08:58:00 PM 25.9351 119.6633 North  Level Estimated
Mon 08:59:00 PM 25.9351 119.6633 North  Level Estimated
Mon 09:00:00 PM 25.9351 119.6633 North  Level Estimated
Mon 09:01:00 PM 25.9351 119.6633 North  Level Estimated
Mon 09:02:00 PM 25.9351 119.6633 North  Level Estimated
Mon 09:03:00 PM 25.9351 119.6633 North  Level Estimated
Mon 09:04:00 PM 25.9351 119.6633 North  Level Estimated
Mon 09:05:00 PM 25.9351 119.6633 North  Level Estimated
Mon 09:06:00 PM 25.9351 119.6633 North  Level Estimated

Login

Don't have an account? Register now (free) for customized features, flight alerts, and more!